M/V Le Conte — WZE4270 — position and weather

sailwx.info

Track history (hours):
 
Tides and Currents Weather Stations Pressure Air Temp Water Temp Dewpoint Dewpoint Depression Visibility Wind Speed Wind Dir Waves Ship Positions

M/V Le Conte

Owner: ALASKA MARINE HIGHWAY SYSTEM, JUNEAU, AK. More information available from US FCC via Universal Licensing System and Coast Guard Vessel Documentation Center.

Last reported at 2017-Sep-20 23:07 UTC. Time now 2017-Sep-23 14:50 UTC.
Position N 58°14' W 135°24'.

Type: Ship. MMSI: 338761000.

Date/timePositionNaut miles runAvg speedWind from/ knotsBaromVisibWave heightAir tempDewpointWater temp
2017-Sep-20 23:07N 58°14' W 135°24'215.9
2017-Sep-20 23:00N 58°15' W 135°27'715.0
2017-Sep-20 22:30N 58°18' W 135°40'612.2
2017-Sep-20 22:00N 58°23' W 135°44'0 0.0
2017-Sep-20 21:27N 58°23' W 135°44'0 0.0
2017-Sep-20 20:57N 58°23' W 135°44'2 4.5
2017-Sep-20 20:30N 58°21' W 135°45'8 0.2
2017-Sep-18 22:49N 58°16' W 135°33'514.5
2017-Sep-18 22:30N 58°18' W 135°41'610.4
2017-Sep-18 21:58N 58°23' W 135°44'0 0.0
2017-Sep-18 21:30N 58°23' W 135°44'0 0.0
2017-Sep-18 21:00N 58°23' W 135°44'2 4.2
2017-Sep-18 20:30N 58°21' W 135°46'916.7
2017-Sep-18 19:58N 58°15' W 135°34'  
2017-Sep-13 21:31N 58°12' W 135°28'216.0
2017-Sep-13 21:22N 58°14' W 135°31'616.1
2017-Sep-13 21:00N 58°17' W 135°40'610.7
2017-Sep-13 20:24N 58°23' W 135°44'0 0.0
2017-Sep-13 20:00N 58°23' W 135°44'0 0.0
2017-Sep-13 19:30N 58°23' W 135°44'1 2.0
2017-Sep-13 19:00N 58°22' W 135°45'814.7
2017-Sep-13 18:28N 58°16' W 135°35'7 0.1
2017-Sep-11 21:33N 58°11' W 135°28'316.7
2017-Sep-11 21:23N 58°13' W 135°31'616.0
2017-Sep-11 21:00N 58°17' W 135°40'712.9
2017-Sep-11 20:30N 58°23' W 135°44'0 0.0
2017-Sep-11 20:00N 58°23' W 135°44'0 0.0
2017-Sep-11 19:24N 58°23' W 135°44'2 4.8
2017-Sep-11 19:00N 58°22' W 135°45'815.2
2017-Sep-11 18:29N 58°16' W 135°34'  
Track history (hours):
 
Tides and Currents Weather Stations Pressure Air Temp Water Temp Dewpoint Dewpoint Depression Visibility Wind Speed Wind Dir Waves Ship Positions

M/V Le Conte

Owner: ALASKA MARINE HIGHWAY SYSTEM, JUNEAU, AK. More information available from US FCC via Universal Licensing System and Coast Guard Vessel Documentation Center.

Last reported at 2017-Sep-20 23:07 UTC. Time now 2017-Sep-23 14:50 UTC.
Position N 58°14' W 135°24'.

Type: Ship. MMSI: 338761000.

Date/timePositionNaut miles runAvg speedWind from/ knotsBaromVisibWave heightAir tempDewpointWater temp
2017-Sep-20 23:07N 58°14' W 135°24'215.9
2017-Sep-20 23:00N 58°15' W 135°27'715.0
2017-Sep-20 22:30N 58°18' W 135°40'612.2
2017-Sep-20 22:00N 58°23' W 135°44'0 0.0
2017-Sep-20 21:27N 58°23' W 135°44'0 0.0
2017-Sep-20 20:57N 58°23' W 135°44'2 4.5
2017-Sep-20 20:30N 58°21' W 135°45'8 0.2
2017-Sep-18 22:49N 58°16' W 135°33'514.5
2017-Sep-18 22:30N 58°18' W 135°41'610.4
2017-Sep-18 21:58N 58°23' W 135°44'0 0.0
2017-Sep-18 21:30N 58°23' W 135°44'0 0.0
2017-Sep-18 21:00N 58°23' W 135°44'2 4.2
2017-Sep-18 20:30N 58°21' W 135°46'916.7
2017-Sep-18 19:58N 58°15' W 135°34'  
2017-Sep-13 21:31N 58°12' W 135°28'216.0
2017-Sep-13 21:22N 58°14' W 135°31'616.1
2017-Sep-13 21:00N 58°17' W 135°40'610.7
2017-Sep-13 20:24N 58°23' W 135°44'0 0.0
2017-Sep-13 20:00N 58°23' W 135°44'0 0.0
2017-Sep-13 19:30N 58°23' W 135°44'1 2.0
2017-Sep-13 19:00N 58°22' W 135°45'814.7
2017-Sep-13 18:28N 58°16' W 135°35'7 0.1
2017-Sep-11 21:33N 58°11' W 135°28'316.7
2017-Sep-11 21:23N 58°13' W 135°31'616.0
2017-Sep-11 21:00N 58°17' W 135°40'712.9
2017-Sep-11 20:30N 58°23' W 135°44'0 0.0
2017-Sep-11 20:00N 58°23' W 135°44'0 0.0
2017-Sep-11 19:24N 58°23' W 135°44'2 4.8
2017-Sep-11 19:00N 58°22' W 135°45'815.2
2017-Sep-11 18:29N 58°16' W 135°34'  

Dump ship's entire track history